Time;durP1;ratioP1;P1;durP2;ratioP2;P2;SDS_P1;SDS_P2;PMS_P1;PMS_P2;Temp;Humidity;BMP_temperature;BMP_pressure;BME280_temperature;BME280_humidity;BME280_pressure;Samples;Min_cycle;Max_cycle;Signal;HPM_P1;HPM_P2
2024/04/26 00:00:12;;;;;;;0.00;0.00;;;12.90;67.20;;;;;;5282132;27;20085;-77
2024/04/26 00:02:38;;;;;;;0.00;0.00;;;13.00;67.00;;;;;;5309392;27;20077;-77
2024/04/26 00:05:04;;;;;;;0.00;0.00;;;12.90;67.20;;;;;;5289991;27;20006;-77
2024/04/26 00:07:29;;;;;;;0.10;0.10;;;12.90;67.60;;;;;;5301505;27;20058;-77
2024/04/26 00:09:55;;;;;;;0.00;0.00;;;12.90;67.20;;;;;;5293042;27;20022;-77
2024/04/26 00:12:21;;;;;;;0.10;0.10;;;12.80;67.70;;;;;;5281521;27;20014;-77
2024/04/26 00:14:46;;;;;;;0.00;0.00;;;12.80;67.60;;;;;;5282053;27;20011;-77
2024/04/26 00:17:12;;;;;;;0.10;0.10;;;12.80;67.30;;;;;;5281507;27;19998;-77
2024/04/26 00:19:37;;;;;;;0.00;0.00;;;12.80;67.70;;;;;;5281819;27;19998;-77
2024/04/26 00:22:04;;;;;;;0.10;0.10;;;12.80;67.80;;;;;;5286037;27;20096;-77
2024/04/26 00:24:30;;;;;;;0.10;0.10;;;12.80;68.40;;;;;;5281927;27;20016;-77
2024/04/26 00:26:55;;;;;;;0.00;0.00;;;12.80;67.70;;;;;;5280519;27;20002;-77
2024/04/26 00:29:21;;;;;;;0.00;0.00;;;12.80;67.60;;;;;;5281012;27;20013;-77
2024/04/26 00:31:47;;;;;;;0.00;0.00;;;12.70;68.40;;;;;;5281587;27;20072;-77
2024/04/26 00:34:13;;;;;;;0.00;0.00;;;12.80;68.00;;;;;;5281667;27;20457;-77
2024/04/26 00:36:40;;;;;;;0.10;0.10;;;12.70;67.80;;;;;;5300436;27;20096;-77
2024/04/26 00:39:06;;;;;;;0.00;0.00;;;12.70;68.30;;;;;;5315368;27;20411;-77
2024/04/26 00:41:31;;;;;;;0.00;0.00;;;12.60;68.80;;;;;;5315646;27;20009;-77
2024/04/26 00:44:10;;;;;;;0.00;0.00;;;12.70;68.90;;;;;;5301773;27;20884;-77
2024/04/26 00:46:41;;;;;;;0.10;0.10;;;12.70;68.60;;;;;;5280729;27;20062;-77
2024/04/26 00:49:07;;;;;;;0.10;0.10;;;12.70;69.10;;;;;;5251474;27;20460;-77
2024/04/26 00:51:34;;;;;;;0.00;0.00;;;12.70;68.80;;;;;;5251246;27;19998;-77
2024/04/26 00:54:00;;;;;;;0.10;0.10;;;12.60;68.80;;;;;;5281635;27;19998;-77
2024/04/26 00:56:26;;;;;;;0.00;0.00;;;12.70;68.90;;;;;;5281396;27;20017;-76
2024/04/26 00:58:53;;;;;;;0.10;0.10;;;12.60;69.40;;;;;;5280390;27;20006;-77
2024/04/26 01:01:20;;;;;;;0.00;0.00;;;12.50;69.80;;;;;;5280128;27;20445;-77
2024/04/26 01:03:45;;;;;;;0.10;0.10;;;12.50;69.70;;;;;;5288533;27;20473;-76
2024/04/26 01:06:11;;;;;;;0.10;0.10;;;12.50;69.80;;;;;;5315554;27;20009;-76
2024/04/26 01:08:37;;;;;;;0.00;0.00;;;12.40;69.90;;;;;;5306882;27;20193;-77
2024/04/26 01:11:04;;;;;;;0.00;0.00;;;12.50;69.80;;;;;;5292450;27;20017;-77
2024/04/26 01:13:34;;;;;;;0.00;0.00;;;12.50;70.10;;;;;;5279041;27;20002;-77
2024/04/26 01:15:59;;;;;;;0.10;0.10;;;12.40;70.20;;;;;;5280302;27;20057;-77
2024/04/26 01:18:25;;;;;;;0.00;0.00;;;12.30;70.50;;;;;;5278311;27;20388;-77
2024/04/26 01:20:52;;;;;;;0.00;0.00;;;12.30;71.00;;;;;;5280249;27;20003;-76
2024/04/26 01:23:18;;;;;;;0.00;0.00;;;12.30;71.10;;;;;;5250950;27;19998;-76
2024/04/26 01:25:56;;;;;;;0.10;0.10;;;12.30;71.20;;;;;;5299508;26;20006;-76
2024/04/26 01:28:21;;;;;;;0.03;0.03;;;12.20;71.50;;;;;;5281001;27;20003;-77
2024/04/26 01:30:47;;;;;;;0.10;0.10;;;12.20;71.90;;;;;;5280755;27;20085;-77
2024/04/26 01:33:13;;;;;;;0.10;0.10;;;12.10;72.10;;;;;;5279619;27;20076;-77
2024/04/26 01:35:38;;;;;;;0.00;0.00;;;12.00;72.60;;;;;;5284694;27;20066;-77
2024/04/26 01:38:04;;;;;;;0.00;0.00;;;12.00;72.90;;;;;;5314532;27;20012;-77
2024/04/26 01:40:29;;;;;;;0.10;0.10;;;11.90;73.10;;;;;;5311645;27;20005;-77
2024/04/26 01:42:55;;;;;;;0.10;0.10;;;11.90;73.10;;;;;;5312783;27;20005;-77
2024/04/26 01:45:21;;;;;;;0.00;0.00;;;11.90;73.00;;;;;;5314918;27;20006;-77
2024/04/26 01:47:46;;;;;;;0.00;0.00;;;11.90;73.20;;;;;;5306231;27;19998;-77
2024/04/26 01:50:12;;;;;;;0.10;0.10;;;11.80;73.50;;;;;;5280275;27;20574;-77
2024/04/26 01:52:38;;;;;;;0.10;0.10;;;11.80;73.70;;;;;;5280402;27;19999;-77
2024/04/26 01:55:03;;;;;;;0.00;0.00;;;11.80;73.70;;;;;;5280507;27;20607;-77
2024/04/26 01:57:29;;;;;;;0.00;0.00;;;11.80;73.20;;;;;;5283128;27;20006;-77
2024/04/26 01:59:55;;;;;;;0.10;0.10;;;11.80;73.40;;;;;;5281828;27;20017;-77
2024/04/26 02:02:20;;;;;;;0.08;0.08;;;11.80;73.40;;;;;;5283982;27;20003;-77
2024/04/26 02:04:46;;;;;;;0.03;0.03;;;11.80;73.70;;;;;;5283597;27;20018;-77
2024/04/26 02:07:11;;;;;;;0.10;0.10;;;11.70;73.90;;;;;;5289486;27;19998;-77
2024/04/26 02:09:37;;;;;;;0.00;0.00;;;11.70;73.60;;;;;;5294261;27;20012;-77
2024/04/26 02:12:03;;;;;;;0.10;0.10;;;11.80;73.70;;;;;;5283277;27;20058;-77
2024/04/26 02:14:28;;;;;;;0.05;0.05;;;11.80;73.40;;;;;;5283124;27;20010;-77
2024/04/26 02:16:55;;;;;;;0.00;0.00;;;11.70;73.70;;;;;;5282811;27;20016;-77
2024/04/26 02:19:22;;;;;;;0.00;0.00;;;11.80;73.50;;;;;;5294995;27;20514;-77
2024/04/26 02:21:47;;;;;;;0.00;0.00;;;11.60;74.10;;;;;;5304657;27;20002;-77
2024/04/26 02:24:13;;;;;;;0.10;0.10;;;11.60;74.00;;;;;;5283273;27;20002;-77
2024/04/26 02:26:39;;;;;;;0.00;0.00;;;11.60;74.30;;;;;;5281088;27;20002;-77
2024/04/26 02:29:05;;;;;;;0.00;0.00;;;11.50;74.30;;;;;;5282862;27;20002;-77
2024/04/26 02:31:30;;;;;;;0.00;0.00;;;11.60;74.20;;;;;;5287492;27;19998;-77
2024/04/26 02:33:56;;;;;;;0.10;0.10;;;11.60;74.00;;;;;;5290325;27;20013;-77
2024/04/26 02:36:22;;;;;;;0.10;0.10;;;11.60;74.00;;;;;;5300785;27;20012;-77
2024/04/26 02:38:47;;;;;;;0.10;0.10;;;11.50;74.20;;;;;;5301777;27;20323;-77
2024/04/26 02:41:14;;;;;;;0.00;0.00;;;11.60;74.20;;;;;;5315784;27;20008;-77
2024/04/26 02:43:41;;;;;;;0.00;0.00;;;11.60;74.10;;;;;;5305574;27;19999;-77
2024/04/26 02:46:11;;;;;;;0.10;0.10;;;11.70;74.20;;;;;;5282511;27;20319;-77
2024/04/26 02:48:36;;;;;;;0.00;0.00;;;11.60;74.30;;;;;;5282506;27;20647;-77
2024/04/26 02:51:02;;;;;;;0.00;0.00;;;11.50;74.40;;;;;;5283103;27;20085;-77
2024/04/26 02:53:28;;;;;;;0.00;0.00;;;11.60;74.20;;;;;;5282284;27;20338;-77
2024/04/26 02:55:53;;;;;;;0.00;0.00;;;11.60;74.00;;;;;;5282443;27;20003;-77
2024/04/26 02:58:19;;;;;;;0.00;0.00;;;11.70;73.60;;;;;;5283084;27;20009;-77
2024/04/26 03:00:44;;;;;;;0.00;0.00;;;11.60;73.50;;;;;;5282359;27;20106;-77
2024/04/26 03:03:10;;;;;;;0.10;0.10;;;11.70;73.20;;;;;;5281911;27;20009;-77
2024/04/26 03:05:36;;;;;;;0.10;0.10;;;11.60;73.20;;;;;;5286587;27;20006;-77
2024/04/26 03:08:01;;;;;;;0.10;0.10;;;11.50;73.60;;;;;;5287950;27;20175;-77
2024/04/26 03:10:28;;;;;;;0.00;0.00;;;11.50;73.50;;;;;;5292931;27;20017;-77
2024/04/26 03:12:54;;;;;;;0.10;0.10;;;11.60;73.40;;;;;;5282591;27;20003;-77
2024/04/26 03:15:19;;;;;;;0.00;0.00;;;11.60;73.50;;;;;;5282788;27;20016;-77
2024/04/26 03:17:45;;;;;;;0.00;0.00;;;11.50;73.50;;;;;;5281454;27;20440;-77
2024/04/26 03:20:11;;;;;;;0.10;0.10;;;11.50;73.60;;;;;;5282940;27;20425;-77
2024/04/26 03:22:36;;;;;;;0.10;0.10;;;11.40;74.00;;;;;;5282668;27;20014;-77
2024/04/26 03:25:02;;;;;;;0.10;0.10;;;11.40;73.80;;;;;;5282609;27;20053;-77
2024/04/26 03:27:28;;;;;;;0.10;0.10;;;11.50;73.70;;;;;;5282365;27;20003;-77
2024/04/26 03:29:54;;;;;;;0.10;0.10;;;11.40;73.90;;;;;;5281453;27;20002;-77
2024/04/26 03:32:20;;;;;;;0.10;0.10;;;11.30;73.60;;;;;;5282450;27;20460;-77
2024/04/26 03:34:45;;;;;;;0.10;0.10;;;11.30;73.70;;;;;;5282226;27;19995;-77
2024/04/26 03:37:11;;;;;;;0.00;0.00;;;11.20;74.10;;;;;;5307525;27;19998;-77
2024/04/26 03:39:36;;;;;;;0.10;0.10;;;11.20;74.30;;;;;;5316125;27;19994;-77
2024/04/26 03:42:02;;;;;;;0.00;0.00;;;11.10;74.40;;;;;;5309416;27;20396;-77
2024/04/26 03:44:29;;;;;;;0.08;0.08;;;11.10;74.70;;;;;;5306956;27;20452;-77
2024/04/26 03:46:55;;;;;;;0.10;0.10;;;11.10;74.80;;;;;;5315570;27;20002;-77
2024/04/26 03:49:21;;;;;;;0.00;0.00;;;11.10;74.70;;;;;;5316139;27;20017;-76
2024/04/26 03:51:46;;;;;;;0.10;0.10;;;11.10;74.80;;;;;;5298566;27;20010;-77
2024/04/26 03:54:12;;;;;;;0.10;0.10;;;10.90;75.10;;;;;;5282237;27;20013;-77
2024/04/26 03:56:38;;;;;;;0.00;0.00;;;10.90;75.70;;;;;;5280952;27;20002;-77
2024/04/26 03:59:03;;;;;;;0.05;0.05;;;10.80;75.70;;;;;;5281999;27;20006;-77
2024/04/26 04:01:29;;;;;;;0.05;0.05;;;10.90;75.80;;;;;;5281843;27;20042;-77
2024/04/26 04:03:54;;;;;;;0.00;0.00;;;10.90;75.70;;;;;;5281265;27;20002;-77
2024/04/26 04:06:20;;;;;;;0.00;0.00;;;10.90;75.50;;;;;;5260681;27;20002;-77
2024/04/26 04:08:47;;;;;;;0.00;0.00;;;11.00;75.30;;;;;;5282450;27;20013;-77
2024/04/26 04:11:14;;;;;;;0.10;0.10;;;11.00;75.20;;;;;;5291736;27;20002;-77
2024/04/26 04:13:39;;;;;;;0.10;0.10;;;11.00;74.90;;;;;;5280845;27;20012;-77
2024/04/26 04:16:06;;;;;;;0.10;0.10;;;10.80;75.40;;;;;;5282298;27;19998;-77
2024/04/26 04:18:31;;;;;;;0.10;0.10;;;10.80;75.80;;;;;;5278295;27;20016;-77
2024/04/26 04:20:57;;;;;;;0.10;0.10;;;10.70;76.00;;;;;;5280986;27;20534;-77
2024/04/26 04:23:22;;;;;;;0.10;0.10;;;10.60;76.20;;;;;;5281831;27;20006;-77
2024/04/26 04:25:49;;;;;;;0.00;0.00;;;10.70;75.90;;;;;;5282060;27;20006;-77
2024/04/26 04:28:15;;;;;;;0.10;0.10;;;10.60;76.00;;;;;;5281401;27;20002;-77
2024/04/26 04:30:40;;;;;;;0.00;0.00;;;10.70;75.80;;;;;;5281653;27;20005;-77
2024/04/26 04:33:06;;;;;;;0.10;0.10;;;10.60;75.80;;;;;;5285102;27;20017;-77
2024/04/26 04:35:32;;;;;;;0.10;0.10;;;10.70;75.60;;;;;;5283951;27;20006;-77
2024/04/26 04:37:58;;;;;;;0.00;0.00;;;10.70;75.60;;;;;;5287885;27;19998;-77
2024/04/26 04:40:23;;;;;;;0.00;0.00;;;10.60;75.70;;;;;;5281493;27;20013;-77
2024/04/26 04:42:49;;;;;;;0.05;0.05;;;10.50;76.10;;;;;;5281454;27;20445;-77
2024/04/26 04:45:15;;;;;;;0.10;0.10;;;10.50;76.20;;;;;;5281097;27;20013;-77
2024/04/26 04:47:40;;;;;;;0.08;0.08;;;10.60;76.00;;;;;;5287323;26;20009;-88
2024/04/26 04:50:06;;;;;;;0.10;0.10;;;10.60;75.90;;;;;;5315323;27;20334;-85
2024/04/26 04:52:32;;;;;;;0.10;0.10;;;10.60;75.80;;;;;;5315784;27;20016;-88
2024/04/26 04:54:57;;;;;;;0.10;0.10;;;10.60;75.80;;;;;;5277845;27;20119;-83
2024/04/26 04:57:23;;;;;;;0.10;0.10;;;10.60;75.60;;;;;;5281069;27;20081;-84
2024/04/26 04:59:48;;;;;;;0.10;0.10;;;10.60;75.50;;;;;;5280915;27;20340;-82
2024/04/26 05:02:14;;;;;;;0.10;0.10;;;10.70;75.50;;;;;;5292234;26;20013;-81
2024/04/26 05:04:40;;;;;;;0.10;0.10;;;10.60;75.60;;;;;;5250731;27;19995;-82
2024/04/26 05:07:06;;;;;;;0.10;0.10;;;10.60;75.60;;;;;;5310493;27;20048;-84
2024/04/26 05:09:32;;;;;;;0.00;0.00;;;10.70;75.50;;;;;;5273738;27;20006;-82
2024/04/26 05:11:57;;;;;;;0.10;0.10;;;10.70;75.60;;;;;;5298658;27;20002;-82
2024/04/26 05:14:23;;;;;;;0.10;0.10;;;10.70;75.50;;;;;;5251325;27;20042;-85
2024/04/26 05:16:49;;;;;;;0.10;0.10;;;10.60;75.90;;;;;;5280697;27;20054;-84
2024/04/26 05:19:14;;;;;;;0.10;0.10;;;10.60;76.20;;;;;;5280433;27;20097;-83
2024/04/26 05:21:40;;;;;;;0.10;0.10;;;10.60;76.90;;;;;;5251245;27;20002;-85
2024/04/26 05:24:06;;;;;;;0.10;0.10;;;10.60;76.60;;;;;;5280522;27;19998;-87
2024/04/26 05:26:31;;;;;;;0.00;0.00;;;10.70;76.60;;;;;;5301903;27;20002;-88
2024/04/26 05:28:57;;;;;;;0.10;0.10;;;10.70;76.60;;;;;;5264464;27;19998;-87
2024/04/26 05:31:22;;;;;;;0.03;0.03;;;10.80;76.50;;;;;;5282257;27;20338;-88
2024/04/26 05:33:48;;;;;;;0.10;0.10;;;10.80;76.60;;;;;;5287318;27;20006;-87
2024/04/26 05:36:14;;;;;;;0.10;0.10;;;10.80;76.80;;;;;;5294467;27;20013;-83
2024/04/26 05:38:39;;;;;;;0.10;0.10;;;10.80;76.80;;;;;;5288090;27;20072;-88
2024/04/26 05:41:05;;;;;;;0.10;0.10;;;10.90;76.60;;;;;;5281651;27;20003;-89
2024/04/26 05:43:31;;;;;;;0.10;0.10;;;10.90;76.20;;;;;;5282601;27;20038;-89
2024/04/26 05:45:56;;;;;;;0.10;0.10;;;11.00;76.20;;;;;;5305003;27;20460;-89
2024/04/26 05:48:22;;;;;;;0.10;0.10;;;10.90;76.70;;;;;;5281273;27;20068;-89
2024/04/26 05:50:48;;;;;;;0.10;0.10;;;10.90;76.90;;;;;;5280085;27;20014;-88
2024/04/26 05:53:14;;;;;;;0.10;0.10;;;10.80;76.80;;;;;;5290632;27;20001;-89
2024/04/26 05:55:40;;;;;;;0.10;0.10;;;10.80;77.00;;;;;;5307983;27;20076;-88
2024/04/26 05:58:05;;;;;;;0.10;0.10;;;10.80;76.80;;;;;;5271784;27;20017;-88
2024/04/26 06:00:32;;;;;;;0.10;0.10;;;10.90;76.50;;;;;;5307599;27;20025;-89
2024/04/26 06:02:58;;;;;;;0.10;0.10;;;10.90;76.60;;;;;;5306990;27;20060;-88
2024/04/26 06:05:23;;;;;;;0.10;0.10;;;10.80;77.00;;;;;;5278172;27;20009;-88
2024/04/26 06:07:50;;;;;;;0.10;0.10;;;10.90;77.30;;;;;;5264723;27;20085;-88
2024/04/26 06:10:16;;;;;;;0.10;0.10;;;10.90;77.20;;;;;;5301975;27;19998;-88
2024/04/26 06:12:41;;;;;;;0.10;0.10;;;11.00;77.10;;;;;;5316577;27;20075;-87
2024/04/26 06:15:07;;;;;;;0.10;0.10;;;11.00;77.20;;;;;;5285777;27;20006;-87
2024/04/26 06:17:33;;;;;;;0.10;0.10;;;11.00;77.40;;;;;;5316327;27;20023;-87
2024/04/26 06:19:59;;;;;;;0.10;0.10;;;11.00;77.30;;;;;;5282624;27;20035;-86
2024/04/26 06:22:25;;;;;;;0.10;0.10;;;11.00;77.70;;;;;;5289874;27;20003;-88
2024/04/26 06:24:50;;;;;;;0.10;0.10;;;11.00;77.90;;;;;;5253630;27;20013;-86
2024/04/26 06:27:16;;;;;;;0.10;0.10;;;11.00;77.70;;;;;;5282488;27;20002;-86
2024/04/26 06:29:42;;;;;;;0.10;0.10;;;11.10;78.10;;;;;;5282903;27;20016;-86
2024/04/26 06:32:08;;;;;;;0.10;0.10;;;11.10;78.00;;;;;;5252489;27;20083;-84
2024/04/26 06:34:34;;;;;;;0.10;0.10;;;11.10;78.40;;;;;;5284298;27;20022;-86
2024/04/26 06:37:01;;;;;;;0.10;0.10;;;11.10;78.40;;;;;;5283779;27;20457;-85
2024/04/26 06:39:27;;;;;;;0.10;0.10;;;11.10;78.20;;;;;;5282572;27;20006;-86
2024/04/26 06:41:52;;;;;;;0.10;0.10;;;11.10;78.10;;;;;;5312265;27;19998;-85
2024/04/26 06:44:18;;;;;;;0.10;0.10;;;11.10;78.40;;;;;;5316548;27;20755;-84
2024/04/26 06:46:44;;;;;;;0.10;0.10;;;11.20;78.30;;;;;;5315834;27;19998;-85
2024/04/26 06:49:09;;;;;;;0.10;0.10;;;11.20;78.60;;;;;;5285261;27;20100;-86
2024/04/26 06:51:35;;;;;;;0.10;0.10;;;11.40;78.90;;;;;;5286035;27;20013;-87
2024/04/26 06:54:00;;;;;;;0.10;0.10;;;11.60;78.70;;;;;;5284178;27;20017;-86
2024/04/26 06:56:26;;;;;;;0.10;0.10;;;11.80;78.30;;;;;;5312169;27;20026;-87
2024/04/26 06:58:52;;;;;;;0.10;0.10;;;11.90;77.80;;;;;;5315936;27;19998;-86
2024/04/26 07:01:17;;;;;;;0.10;0.10;;;12.00;77.40;;;;;;5315683;27;20834;-87
2024/04/26 07:03:43;;;;;;;0.10;0.10;;;11.90;77.50;;;;;;5312205;27;20079;-85
2024/04/26 07:06:09;;;;;;;0.10;0.10;;;11.80;77.60;;;;;;5284688;27;20017;-86
2024/04/26 07:08:34;;;;;;;0.10;0.10;;;11.80;77.80;;;;;;5313171;27;20013;-86
2024/04/26 07:11:00;;;;;;;0.10;0.10;;;11.80;77.60;;;;;;5302831;27;20448;-86
2024/04/26 07:13:26;;;;;;;0.10;0.10;;;11.90;77.30;;;;;;5280807;27;19998;-87
2024/04/26 07:15:51;;;;;;;0.10;0.10;;;11.90;77.40;;;;;;5251951;27;20025;-86
2024/04/26 07:18:17;;;;;;;0.10;0.10;;;11.90;77.10;;;;;;5291426;27;20448;-85
2024/04/26 07:20:43;;;;;;;0.10;0.10;;;11.70;77.70;;;;;;5317141;27;20016;-85
2024/04/26 07:23:10;;;;;;;0.10;0.10;;;11.70;77.90;;;;;;5316145;27;20048;-85
2024/04/26 07:25:36;;;;;;;0.10;0.10;;;11.70;78.00;;;;;;5283534;27;20004;-87
2024/04/26 07:28:01;;;;;;;0.10;0.10;;;11.80;77.90;;;;;;5285344;27;20002;-85
2024/04/26 07:30:27;;;;;;;0.10;0.10;;;11.80;77.70;;;;;;5314624;27;20002;-87
2024/04/26 07:32:52;;;;;;;0.10;0.10;;;11.90;78.00;;;;;;5279173;27;20053;-86
2024/04/26 07:35:18;;;;;;;0.20;0.20;;;12.00;78.30;;;;;;5285282;27;20348;-85
2024/04/26 07:37:44;;;;;;;0.20;0.20;;;12.40;76.90;;;;;;5284770;27;20006;-87
2024/04/26 07:40:10;;;;;;;0.30;0.30;;;13.20;75.70;;;;;;5309138;27;20457;-87
2024/04/26 07:42:35;;;;;;;0.20;0.20;;;14.30;73.40;;;;;;5294473;27;20012;-85
2024/04/26 07:45:02;;;;;;;0.20;0.20;;;15.10;70.90;;;;;;5307104;27;20002;-78
2024/04/26 07:47:27;;;;;;;0.20;0.20;;;15.20;67.90;;;;;;5282889;27;20005;-78
2024/04/26 07:49:53;;;;;;;0.30;0.30;;;15.70;67.20;;;;;;5310374;27;19994;-78
2024/04/26 07:52:19;;;;;;;0.30;0.30;;;16.20;66.10;;;;;;5311002;27;20079;-78
2024/04/26 07:54:44;;;;;;;0.50;0.50;;;16.70;63.60;;;;;;5311947;27;19997;-81
2024/04/26 07:57:10;;;;;;;0.32;0.32;;;18.00;61.30;;;;;;5314260;27;20001;-78
2024/04/26 07:59:36;;;;;;;0.20;0.20;;;19.50;56.60;;;;;;5287019;27;20009;-81
2024/04/26 08:02:02;;;;;;;0.60;0.60;;;21.10;50.80;;;;;;5288001;27;20437;-81
2024/04/26 08:04:27;;;;;;;0.30;0.30;;;20.90;52.00;;;;;;5280999;27;20021;-81
2024/04/26 08:06:53;;;;;;;0.17;0.17;;;20.10;52.80;;;;;;5302949;27;20005;-76
2024/04/26 08:09:19;;;;;;;0.10;0.10;;;19.30;53.80;;;;;;5277338;27;20002;-77
2024/04/26 08:11:47;;;;;;;0.10;0.10;;;18.00;55.90;;;;;;5313165;27;19998;-75
2024/04/26 08:14:13;;;;;;;0.10;0.10;;;17.30;58.60;;;;;;5278906;27;19997;-78
2024/04/26 08:16:38;;;;;;;0.10;0.10;;;16.90;60.30;;;;;;5252554;27;20054;-79
2024/04/26 08:19:04;;;;;;;0.10;0.10;;;16.30;62.30;;;;;;5302297;26;20805;-80
2024/04/26 08:21:29;;;;;;;0.10;0.10;;;16.10;63.50;;;;;;5312342;27;19998;-78
2024/04/26 08:23:56;;;;;;;0.30;0.30;;;15.60;65.30;;;;;;5315327;27;20211;-81
2024/04/26 08:26:22;;;;;;;0.10;0.10;;;16.00;64.70;;;;;;5282800;27;20005;-83
2024/04/26 08:28:48;;;;;;;0.22;0.22;;;16.80;63.40;;;;;;5312878;27;20462;-80
2024/04/26 08:31:14;;;;;;;0.10;0.10;;;17.20;61.40;;;;;;5309339;27;20063;-80
2024/04/26 08:33:39;;;;;;;0.40;0.40;;;17.10;62.10;;;;;;5314432;27;20013;-79
2024/04/26 08:36:05;;;;;;;0.50;0.50;;;17.50;62.20;;;;;;5284146;27;20013;-80
2024/04/26 08:38:31;;;;;;;0.20;0.20;;;19.30;56.50;;;;;;5313611;27;20002;-79
2024/04/26 08:40:57;;;;;;;0.10;0.10;;;19.30;55.40;;;;;;5312590;27;20103;-80
2024/04/26 08:43:23;;;;;;;0.10;0.10;;;19.00;55.10;;;;;;5283559;27;20002;-80
2024/04/26 08:45:53;;;;;;;0.10;0.10;;;18.80;56.50;;;;;;5309952;27;20002;-80
2024/04/26 08:48:21;;;;;;;0.10;0.10;;;18.40;56.60;;;;;;5283847;27;20002;-79
2024/04/26 08:50:49;;;;;;;0.30;0.30;;;18.10;57.00;;;;;;5309369;27;20018;-79
2024/04/26 08:53:18;;;;;;;0.20;0.20;;;17.80;58.00;;;;;;5280098;27;20002;-81
2024/04/26 08:55:43;;;;;;;0.10;0.10;;;18.20;57.70;;;;;;5284565;27;20005;-80
2024/04/26 08:58:11;;;;;;;0.10;0.10;;;18.00;56.30;;;;;;5310037;27;20001;-80
2024/04/26 09:00:38;;;;;;;0.10;0.10;;;17.70;59.20;;;;;;5312968;27;20009;-80
2024/04/26 09:03:04;;;;;;;0.10;0.10;;;17.20;59.70;;;;;;5313344;27;20037;-79
2024/04/26 09:05:32;;;;;;;0.10;0.10;;;16.70;60.00;;;;;;5312217;26;20452;-79
2024/04/26 09:07:59;;;;;;;0.10;0.10;;;16.80;61.80;;;;;;5279538;27;20437;-80
2024/04/26 09:10:29;;;;;;;0.00;0.00;;;16.80;61.50;;;;;;5282340;27;19997;-80
2024/04/26 09:12:55;;;;;;;0.10;0.10;;;16.60;61.90;;;;;;5278997;27;20012;-80
2024/04/26 09:15:21;;;;;;;0.10;0.10;;;16.30;63.90;;;;;;5313875;27;20002;-79
2024/04/26 09:17:47;;;;;;;0.10;0.10;;;16.00;63.20;;;;;;5307930;27;19998;-79
2024/04/26 09:20:13;;;;;;;0.10;0.10;;;15.90;64.40;;;;;;5314015;27;19997;-78
2024/04/26 09:22:43;;;;;;;0.10;0.10;;;15.90;64.20;;;;;;5282962;27;20016;-79
2024/04/26 09:25:09;;;;;;;0.20;0.20;;;15.90;64.30;;;;;;5312510;27;20010;-79
2024/04/26 09:27:36;;;;;;;0.10;0.10;;;16.50;63.70;;;;;;5280571;27;20012;-79
2024/04/26 09:30:03;;;;;;;0.10;0.10;;;16.70;63.00;;;;;;5313498;27;19997;-78
2024/04/26 09:32:30;;;;;;;0.10;0.10;;;16.70;62.00;;;;;;5313346;27;20448;-79
2024/04/26 09:34:57;;;;;;;0.20;0.20;;;16.90;61.10;;;;;;5281893;27;20005;-78
2024/04/26 09:37:23;;;;;;;0.20;0.20;;;17.10;61.20;;;;;;5312926;27;20009;-80
2024/04/26 09:39:49;;;;;;;0.30;0.30;;;17.70;59.90;;;;;;5310032;27;20006;-80
2024/04/26 09:42:20;;;;;;;0.17;0.17;;;18.30;58.40;;;;;;5311870;27;20012;-79
2024/04/26 09:44:52;;;;;;;0.10;0.10;;;18.00;57.50;;;;;;5275621;27;20010;-81
2024/04/26 09:47:23;;;;;;;0.10;0.10;;;17.70;58.30;;;;;;5277984;27;20008;-79
2024/04/26 09:49:50;;;;;;;0.10;0.10;;;17.00;59.40;;;;;;5313578;27;20009;-79
2024/04/26 09:52:16;;;;;;;0.10;0.10;;;17.20;60.30;;;;;;5310671;27;20693;-80
2024/04/26 09:54:47;;;;;;;0.10;0.10;;;17.10;60.40;;;;;;5310758;27;20002;-79
2024/04/26 09:57:13;;;;;;;0.10;0.10;;;17.00;60.70;;;;;;5282787;27;20415;-79
2024/04/26 09:59:41;;;;;;;0.20;0.20;;;17.10;60.10;;;;;;5283379;27;20021;-78
2024/04/26 10:02:18;;;;;;;0.10;0.10;;;17.00;59.90;;;;;;5283411;27;20016;-79
2024/04/26 10:04:44;;;;;;;0.10;0.10;;;16.80;61.00;;;;;;5307600;26;20010;-80
2024/04/26 10:07:20;;;;;;;0.10;0.10;;;16.80;60.90;;;;;;5309078;27;20023;-80
2024/04/26 10:09:59;;;;;;;0.10;0.10;;;16.70;60.20;;;;;;5280672;27;20017;-80
2024/04/26 10:12:28;;;;;;;0.10;0.10;;;16.50;60.00;;;;;;5279833;27;20002;-80
2024/04/26 10:15:09;;;;;;;0.10;0.10;;;16.70;60.10;;;;;;5290248;27;20002;-79
2024/04/26 10:17:46;;;;;;;0.10;0.10;;;16.80;60.20;;;;;;5281660;27;20021;-80
2024/04/26 10:20:12;;;;;;;0.15;0.15;;;17.00;60.40;;;;;;5281021;27;20492;-80
2024/04/26 10:22:38;;;;;;;0.10;0.10;;;17.00;59.80;;;;;;5315534;27;20384;-80
2024/04/26 10:25:04;;;;;;;0.10;0.10;;;17.10;59.80;;;;;;5316722;27;20017;-79
2024/04/26 10:27:30;;;;;;;0.10;0.10;;;17.20;59.80;;;;;;5312379;27;20013;-82
2024/04/26 10:29:56;;;;;;;0.10;0.10;;;17.10;60.30;;;;;;5286217;27;20001;-82
2024/04/26 10:32:22;;;;;;;0.10;0.10;;;17.20;60.60;;;;;;5280266;27;20007;-76
2024/04/26 10:34:47;;;;;;;0.10;0.10;;;17.20;58.90;;;;;;5312653;27;20388;-76
2024/04/26 10:37:14;;;;;;;0.10;0.10;;;17.30;59.00;;;;;;5286725;27;20087;-75
2024/04/26 10:39:40;;;;;;;0.10;0.10;;;17.30;58.60;;;;;;5272108;27;20077;-76
2024/04/26 10:42:06;;;;;;;0.10;0.10;;;17.50;58.10;;;;;;5282623;27;20034;-76
2024/04/26 10:44:31;;;;;;;0.10;0.10;;;17.50;58.70;;;;;;5282469;27;20040;-76
2024/04/26 10:47:01;;;;;;;0.10;0.10;;;17.50;58.70;;;;;;5280817;27;20009;-76
2024/04/26 10:49:27;;;;;;;0.10;0.10;;;17.20;59.60;;;;;;5272349;27;20002;-76
2024/04/26 10:52:04;;;;;;;0.10;0.10;;;17.30;59.80;;;;;;5282648;27;20002;-76
2024/04/26 10:54:31;;;;;;;0.10;0.10;;;17.40;59.70;;;;;;5283407;27;20106;-76
2024/04/26 10:56:57;;;;;;;0.10;0.10;;;17.60;58.90;;;;;;5258764;27;19993;-76
2024/04/26 10:59:24;;;;;;;0.10;0.10;;;17.60;58.80;;;;;;5317112;27;20393;-75
2024/04/26 11:01:57;;;;;;;0.10;0.10;;;17.60;58.40;;;;;;5285936;27;20002;-76
2024/04/26 11:04:24;;;;;;;0.10;0.10;;;17.40;57.60;;;;;;5285032;27;20002;-76
2024/04/26 11:06:49;;;;;;;0.10;0.10;;;17.50;57.40;;;;;;5316220;27;19994;-76
2024/04/26 11:09:17;;;;;;;0.20;0.20;;;17.70;57.30;;;;;;5317293;27;20071;-77
2024/04/26 11:11:56;;;;;;;0.10;0.10;;;18.20;57.20;;;;;;5286300;27;20012;-75
2024/04/26 11:14:24;;;;;;;0.10;0.10;;;18.20;55.70;;;;;;5289670;27;20033;-77
2024/04/26 11:16:50;;;;;;;0.10;0.10;;;18.10;55.80;;;;;;5263895;27;19999;-76
2024/04/26 11:19:27;;;;;;;0.10;0.10;;;18.00;56.20;;;;;;5252454;27;20010;-77
2024/04/26 11:21:53;;;;;;;0.10;0.10;;;17.80;56.20;;;;;;5276635;27;20078;-77
2024/04/26 11:24:18;;;;;;;0.10;0.10;;;17.60;55.30;;;;;;5303342;27;20013;-78
2024/04/26 11:26:44;;;;;;;0.10;0.10;;;17.30;56.50;;;;;;5282436;27;19998;-77
2024/04/26 11:29:10;;;;;;;0.10;0.10;;;17.30;56.70;;;;;;5281844;27;20046;-87
2024/04/26 11:31:40;;;;;;;0.10;0.10;;;17.20;57.40;;;;;;5280614;27;20001;-80
2024/04/26 11:34:08;;;;;;;0.10;0.10;;;17.30;57.60;;;;;;5311762;27;20020;-80
2024/04/26 11:36:34;;;;;;;0.10;0.10;;;17.50;56.10;;;;;;5277927;27;20048;-82
2024/04/26 11:38:59;;;;;;;0.10;0.10;;;17.60;56.20;;;;;;5275655;27;20046;-81
2024/04/26 11:41:25;;;;;;;0.10;0.10;;;17.40;54.80;;;;;;5310034;27;20082;-80
2024/04/26 11:43:51;;;;;;;0.05;0.05;;;17.30;55.80;;;;;;5308831;27;20005;-82
2024/04/26 11:46:17;;;;;;;0.10;0.10;;;17.30;57.00;;;;;;5279230;27;20001;-79
2024/04/26 11:48:43;;;;;;;0.10;0.10;;;17.10;56.20;;;;;;5311840;27;20017;-80
2024/04/26 11:51:09;;;;;;;0.10;0.10;;;17.00;56.70;;;;;;5310228;27;20002;-81
2024/04/26 11:53:36;;;;;;;0.10;0.10;;;17.00;57.10;;;;;;5312681;27;20009;-80
2024/04/26 11:56:02;;;;;;;0.10;0.10;;;17.20;57.30;;;;;;5311422;27;20024;-80
2024/04/26 11:58:28;;;;;;;0.10;0.10;;;17.40;56.30;;;;;;5312625;27;20157;-81
2024/04/26 12:00:53;;;;;;;0.00;0.00;;;17.60;56.50;;;;;;5281193;27;20023;-81
2024/04/26 12:03:19;;;;;;;0.00;0.00;;;17.50;56.70;;;;;;5307945;26;20010;-81
2024/04/26 12:05:45;;;;;;;0.00;0.00;;;16.70;56.30;;;;;;5301169;27;20098;-81
2024/04/26 12:08:11;;;;;;;0.00;0.00;;;15.80;63.80;;;;;;5279949;27;20006;-80
2024/04/26 12:10:37;;;;;;;0.10;0.10;;;15.10;67.70;;;;;;5310365;27;20009;-80
2024/04/26 12:13:03;;;;;;;0.00;0.00;;;14.70;70.30;;;;;;5311484;27;20364;-80
2024/04/26 12:15:29;;;;;;;0.00;0.00;;;14.50;71.80;;;;;;5279271;27;20013;-80
2024/04/26 12:17:55;;;;;;;0.10;0.10;;;14.30;72.90;;;;;;5307540;27;20360;-80
2024/04/26 12:20:20;;;;;;;0.00;0.00;;;14.30;73.60;;;;;;5274157;27;20009;-79
2024/04/26 12:22:46;;;;;;;0.00;0.00;;;14.20;72.80;;;;;;5282465;27;20017;-79
2024/04/26 12:25:13;;;;;;;0.00;0.00;;;14.10;74.20;;;;;;5281267;27;20004;-79
2024/04/26 12:27:39;;;;;;;0.10;0.10;;;14.10;74.40;;;;;;5282819;27;19997;-79
2024/04/26 12:30:08;;;;;;;0.10;0.10;;;14.20;74.20;;;;;;5310732;27;20006;-79
2024/04/26 12:32:34;;;;;;;0.10;0.10;;;14.20;74.60;;;;;;5311446;27;20002;-78
2024/04/26 12:35:02;;;;;;;0.10;0.10;;;14.20;74.80;;;;;;5281092;27;20371;-78
2024/04/26 12:37:29;;;;;;;0.10;0.10;;;14.10;74.60;;;;;;5307042;27;20080;-78
2024/04/26 12:39:55;;;;;;;0.10;0.10;;;14.30;75.10;;;;;;5306527;27;20034;-78
2024/04/26 12:42:22;;;;;;;0.10;0.10;;;14.60;75.00;;;;;;5308139;27;20043;-81